createdAt,value
2023-04-16T00:00:44.866Z,101268.53
2023-04-16T00:03:17.616Z,101270.30
2023-04-16T00:05:49.902Z,101272.03
2023-04-16T00:08:21.832Z,101276.44
2023-04-16T00:10:55.303Z,101276.42
2023-04-16T00:13:28.050Z,101278.20
2023-04-16T00:16:00.267Z,101279.92
2023-04-16T00:18:32.507Z,101286.02
2023-04-16T00:21:04.729Z,101287.77
2023-04-16T00:23:36.947Z,101279.12
2023-04-16T00:26:10.184Z,101280.86
2023-04-16T00:28:43.833Z,101281.81
2023-04-16T00:31:16.117Z,101280.95
2023-04-16T00:33:48.071Z,101284.44
2023-04-16T00:36:20.176Z,101281.86
2023-04-16T00:38:52.532Z,101290.54
2023-04-16T00:41:24.845Z,101281.87
2023-04-16T00:43:56.906Z,101283.66
2023-04-16T00:46:29.641Z,101293.24
2023-04-16T00:49:03.731Z,101292.38
2023-04-16T00:51:37.223Z,101298.48
2023-04-16T00:54:09.299Z,101288.97
2023-04-16T00:56:41.707Z,101297.68
2023-04-16T00:59:14.080Z,101293.37
2023-04-16T01:01:46.178Z,101292.54
2023-04-16T01:04:18.768Z,101293.43
2023-04-16T01:06:51.385Z,101291.72
2023-04-16T01:09:24.046Z,101288.23
2023-04-16T01:11:56.415Z,101284.80
2023-04-16T01:14:28.522Z,101287.42
2023-04-16T01:17:00.873Z,101271.86
2023-04-16T01:19:32.939Z,101278.79
2023-04-16T01:22:06.167Z,101278.78
2023-04-16T01:24:39.878Z,101279.67
2023-04-16T01:27:13.752Z,101274.48
2023-04-16T01:29:45.938Z,101273.59
2023-04-16T01:32:19.663Z,101277.08
2023-04-16T01:34:52.019Z,101280.52
2023-04-16T01:37:24.134Z,101277.06
2023-04-16T01:39:56.201Z,101276.19
2023-04-16T01:42:28.713Z,101275.30
2023-04-16T01:45:01.046Z,101283.10
2023-04-16T01:47:34.501Z,101283.09
2023-04-16T01:50:07.774Z,101273.53
2023-04-16T01:52:39.894Z,101274.41
2023-04-16T01:55:12.474Z,101275.28
2023-04-16T01:57:44.926Z,101276.99
2023-04-16T02:00:17.689Z,101275.20
2023-04-16T02:02:52.148Z,101289.94
2023-04-16T02:05:26.081Z,101282.97
2023-04-16T02:07:58.423Z,101285.56
2023-04-16T02:10:30.641Z,101283.82
2023-04-16T02:13:02.784Z,101284.64
2023-04-16T02:15:35.116Z,101284.64
2023-04-16T02:18:07.795Z,101286.38
2023-04-16T02:20:42.843Z,101286.41
2023-04-16T02:23:15.670Z,101282.92
2023-04-16T02:25:48.971Z,101288.15
2023-04-16T02:28:21.766Z,101285.56
2023-04-16T02:30:53.878Z,101287.31
2023-04-16T02:33:26.950Z,101284.72
2023-04-16T02:36:00.855Z,101286.50
2023-04-16T02:38:33.297Z,101285.64
2023-04-16T02:41:05.711Z,101277.00
2023-04-16T02:43:38.357Z,101289.14
2023-04-16T02:46:10.512Z,101285.64
2023-04-16T02:48:42.811Z,101290.00
2023-04-16T02:51:14.835Z,101286.52
2023-04-16T02:53:47.238Z,101289.06
2023-04-16T02:56:19.202Z,101295.13
2023-04-16T02:58:51.402Z,101297.73
2023-04-16T03:01:23.506Z,101298.58
2023-04-16T03:03:55.842Z,101294.31
2023-04-16T03:06:27.949Z,101295.16
2023-04-16T03:09:00.250Z,101293.44
2023-04-16T03:11:32.283Z,101298.64
2023-04-16T03:14:04.491Z,101296.02
2023-04-16T03:16:36.693Z,101298.63
2023-04-16T03:19:09.101Z,101307.27
2023-04-16T03:21:41.389Z,101307.27
2023-04-16T03:24:13.901Z,101308.14
2023-04-16T03:26:46.097Z,101302.89
2023-04-16T03:29:18.402Z,101305.49
2023-04-16T03:31:50.991Z,101306.35
2023-04-16T03:34:22.891Z,101308.05
2023-04-16T03:36:55.023Z,101299.30
2023-04-16T03:39:27.370Z,101308.81
2023-04-16T03:41:59.418Z,101299.25
2023-04-16T03:44:32.256Z,101298.36
2023-04-16T03:47:05.568Z,101291.34
2023-04-16T03:49:37.839Z,101297.36
2023-04-16T03:52:11.454Z,101299.89
2023-04-16T03:54:44.072Z,101297.26
2023-04-16T03:57:17.699Z,101304.99
2023-04-16T03:59:50.255Z,101303.19
2023-04-16T04:02:22.899Z,101300.47
2023-04-16T04:04:55.232Z,101295.11
2023-04-16T04:07:27.699Z,101301.89
2023-04-16T04:10:00.078Z,101295.59
2023-04-16T04:12:33.886Z,101289.31
2023-04-16T04:15:06.486Z,101296.07
2023-04-16T04:17:38.921Z,101294.08
2023-04-16T04:20:12.421Z,101301.59
2023-04-16T04:22:46.454Z,101287.30
2023-04-16T04:25:19.273Z,101283.45
2023-04-16T04:27:51.876Z,101290.92
2023-04-16T04:30:24.112Z,101289.67
2023-04-16T04:32:56.291Z,101287.67
2023-04-16T04:35:29.025Z,101283.02
2023-04-16T04:38:04.050Z,101285.37
2023-04-16T04:40:37.070Z,101292.01
2023-04-16T04:43:09.084Z,101290.79
2023-04-16T04:45:41.690Z,101285.25
2023-04-16T04:48:14.238Z,101288.41
2023-04-16T04:50:47.107Z,101289.97
2023-04-16T04:53:19.055Z,101289.81
2023-04-16T04:55:54.023Z,101295.89
2023-04-16T04:58:25.235Z,101288.91
2023-04-16T05:00:57.394Z,101291.52
2023-04-16T05:03:29.568Z,101280.17
2023-04-16T05:06:01.937Z,101290.59
2023-04-16T05:08:34.872Z,101287.87
2023-04-16T05:11:07.014Z,101286.83
2023-04-16T05:13:39.079Z,101284.89
2023-04-16T05:16:11.446Z,101290.64
2023-04-16T05:18:44.097Z,101291.98
2023-04-16T05:21:16.541Z,101292.61
2023-04-16T05:23:48.599Z,101290.61
2023-04-16T05:26:21.212Z,101283.40
2023-04-16T05:28:55.730Z,101280.52
2023-04-16T05:31:27.378Z,101282.01
2023-04-16T05:33:59.951Z,101278.20
2023-04-16T05:36:32.044Z,101276.27
2023-04-16T05:39:04.361Z,101278.62
2023-04-16T05:41:36.500Z,101275.84
2023-04-16T05:44:08.608Z,101273.97
2023-04-16T05:46:41.258Z,101278.27
2023-04-16T05:49:13.649Z,101282.61
2023-04-16T05:51:45.857Z,101275.64
2023-04-16T05:54:18.640Z,101278.34
2023-04-16T05:56:50.683Z,101270.27
2023-04-16T05:59:23.340Z,101270.17
2023-04-16T06:01:55.501Z,101264.45
2023-04-16T06:04:27.800Z,101266.77
2023-04-16T06:06:59.864Z,101262.08
2023-04-16T06:09:31.875Z,101266.27
2023-04-16T06:12:04.057Z,101265.42
2023-04-16T06:14:36.478Z,101249.55
2023-04-16T06:17:08.693Z,101259.67
2023-04-16T06:19:40.910Z,101252.52
2023-04-16T06:22:13.106Z,101250.47
2023-04-16T06:24:45.709Z,101242.66
2023-04-16T06:27:17.705Z,101245.31
2023-04-16T06:29:49.900Z,101249.12
2023-04-16T06:32:22.050Z,101247.63
2023-04-16T06:34:54.547Z,101256.38
2023-04-16T06:37:26.809Z,101256.79
2023-04-16T06:39:58.830Z,101251.33
2023-04-16T06:42:31.080Z,101245.31
2023-04-16T06:45:03.278Z,101243.05
2023-04-16T06:47:35.714Z,101240.02
2023-04-16T06:50:08.480Z,101240.02
2023-04-16T06:52:40.702Z,101232.14
2023-04-16T06:55:13.095Z,101239.84
2023-04-16T06:57:45.456Z,101226.16
2023-04-16T07:00:17.662Z,101201.20
2023-04-16T07:02:49.877Z,101201.20
2023-04-16T07:05:22.107Z,101220.97
2023-04-16T07:07:55.927Z,101225.51
2023-04-16T07:10:27.883Z,101229.52
2023-04-16T07:13:01.675Z,101227.51
2023-04-16T07:15:33.947Z,101225.78
2023-04-16T07:18:06.577Z,101230.28
2023-04-16T07:20:38.848Z,101218.83
2023-04-16T07:23:11.099Z,101225.37
2023-04-16T07:25:44.527Z,101220.73
2023-04-16T07:28:17.851Z,101222.30
2023-04-16T07:30:50.615Z,101237.94
2023-04-16T07:33:22.802Z,101233.43
2023-04-16T07:35:54.910Z,101233.43
2023-04-16T07:38:26.862Z,101233.50
2023-04-16T07:40:58.963Z,101230.25
2023-04-16T07:43:31.113Z,101235.67
2023-04-16T07:46:03.283Z,101231.42
2023-04-16T07:48:35.638Z,101231.84
2023-04-16T07:51:07.811Z,101232.06
2023-04-16T07:53:40.271Z,101233.08
2023-04-16T07:56:12.648Z,101224.27
2023-04-16T07:58:44.667Z,101221.61
2023-04-16T08:01:16.693Z,101223.17
2023-04-16T08:03:49.403Z,101218.73
2023-04-16T08:06:21.884Z,101219.34
2023-04-16T08:08:54.131Z,101204.06
2023-04-16T08:11:26.302Z,101208.03
2023-04-16T08:13:58.823Z,101208.98
2023-04-16T08:16:31.016Z,101211.48
2023-04-16T08:19:03.875Z,101202.39
2023-04-16T08:21:36.404Z,101202.77
2023-04-16T08:24:09.204Z,101201.59
2023-04-16T08:26:41.330Z,101199.54
2023-04-16T08:29:13.684Z,101191.77
2023-04-16T08:31:46.315Z,101198.63
2023-04-16T08:34:19.228Z,101192.61
2023-04-16T08:36:52.042Z,101183.63
2023-04-16T08:39:24.406Z,101192.30
2023-04-16T08:41:58.239Z,101188.33
2023-04-16T08:44:34.151Z,101184.05
2023-04-16T08:47:09.649Z,101185.00
2023-04-16T08:49:42.503Z,101179.55
2023-04-16T08:52:17.466Z,101172.07
2023-04-16T08:54:56.973Z,101176.45
2023-04-16T08:57:32.230Z,101170.06
2023-04-16T09:00:05.417Z,101159.39
2023-04-16T09:02:37.432Z,101168.89
2023-04-16T09:05:11.934Z,101161.73
2023-04-16T09:07:47.793Z,101159.84
2023-04-16T09:10:21.052Z,101164.03
2023-04-16T09:12:55.102Z,101161.75
2023-04-16T09:15:27.743Z,101156.89
2023-04-16T09:18:00.043Z,101148.34
2023-04-16T09:20:33.184Z,101155.42
2023-04-16T09:23:05.606Z,101152.72
2023-04-16T09:25:38.750Z,101148.28
2023-04-16T09:28:11.958Z,101147.02
2023-04-16T09:30:44.270Z,101141.86
2023-04-16T09:33:24.733Z,101145.36
2023-04-16T09:35:57.417Z,101138.94
2023-04-16T09:38:50.033Z,101140.02
2023-04-16T09:41:30.325Z,101146.69
2023-04-16T09:44:04.823Z,101140.17
2023-04-16T09:46:37.632Z,101143.23
2023-04-16T09:49:14.011Z,101144.10
2023-04-16T09:51:48.198Z,101144.10
2023-04-16T09:54:20.755Z,101119.94
2023-04-16T09:56:52.363Z,101139.59
2023-04-16T09:59:25.844Z,101124.98
2023-04-16T10:02:14.797Z,101133.13
2023-04-16T10:04:42.919Z,101123.94
2023-04-16T10:07:14.930Z,101132.50
2023-04-16T10:09:53.041Z,101121.36
2023-04-16T10:12:25.259Z,101125.84
2023-04-16T10:14:57.454Z,101107.72
2023-04-16T10:17:30.470Z,101098.31
2023-04-16T10:20:04.223Z,101117.39
2023-04-16T10:22:36.802Z,101125.00
2023-04-16T10:25:09.715Z,101121.58
2023-04-16T10:27:42.720Z,101116.04
2023-04-16T10:30:16.782Z,101118.61
2023-04-16T10:32:51.398Z,101097.73
2023-04-16T10:35:23.536Z,101117.09
2023-04-16T10:37:59.076Z,101086.97
2023-04-16T10:40:31.339Z,101086.97
2023-04-16T10:43:03.651Z,101102.74
2023-04-16T10:45:40.288Z,101108.66
2023-04-16T10:48:14.234Z,101105.63
2023-04-16T10:50:58.051Z,101104.47
2023-04-16T10:53:30.422Z,101104.49
2023-04-16T10:56:12.252Z,101102.95
2023-04-16T10:58:44.519Z,101126.86
2023-04-16T11:01:17.204Z,101096.91
2023-04-16T11:03:49.726Z,101095.05
2023-04-16T11:06:29.719Z,101100.67
2023-04-16T11:09:04.154Z,101101.91
2023-04-16T11:11:39.739Z,101094.06
2023-04-16T11:14:13.318Z,101090.16
2023-04-16T11:16:46.270Z,101087.36
2023-04-16T11:19:19.110Z,101090.17
2023-04-16T11:21:52.659Z,101074.27
2023-04-16T11:24:26.197Z,101077.87
2023-04-16T11:26:59.121Z,101070.77
2023-04-16T11:29:31.284Z,101082.47
2023-04-16T11:32:03.373Z,101074.16
2023-04-16T11:34:35.582Z,101068.42
2023-04-16T11:37:07.884Z,101065.02
2023-04-16T11:39:55.373Z,101067.23
2023-04-16T11:42:29.842Z,101071.73
2023-04-16T11:45:01.630Z,101071.84
2023-04-16T11:47:33.756Z,101069.05
2023-04-16T11:50:29.137Z,101045.02
2023-04-16T11:53:07.944Z,101042.12
2023-04-16T11:55:49.619Z,101048.53
2023-04-16T11:58:25.134Z,101046.75
2023-04-16T12:01:05.550Z,101046.06
2023-04-16T12:03:43.505Z,101044.34
2023-04-16T12:06:16.379Z,101040.57
2023-04-16T12:08:48.870Z,101025.56
2023-04-16T12:11:21.278Z,101029.42
2023-04-16T12:14:12.920Z,101017.57
2023-04-16T12:16:44.919Z,101025.59
2023-04-16T12:19:17.388Z,101011.42
2023-04-16T12:21:51.326Z,101007.23
2023-04-16T12:24:24.973Z,100998.47
2023-04-16T12:26:57.634Z,100993.63
2023-04-16T12:29:30.145Z,100989.76
2023-04-16T12:32:03.382Z,100979.77
2023-04-16T12:34:48.327Z,100985.61
2023-04-16T12:37:13.008Z,100972.42
2023-04-16T12:39:47.555Z,100972.70
2023-04-16T12:42:19.627Z,100964.84
2023-04-16T12:44:51.853Z,100961.69
2023-04-16T12:47:23.808Z,100958.91
2023-04-16T12:49:56.762Z,100961.55
2023-04-16T12:52:29.219Z,100950.58
2023-04-16T12:55:02.949Z,100939.08
2023-04-16T12:57:35.433Z,100952.22
2023-04-16T13:00:11.571Z,100951.41
2023-04-16T13:02:43.888Z,100938.28
2023-04-16T13:05:17.549Z,100928.59
2023-04-16T13:07:49.523Z,100935.11
2023-04-16T13:10:23.683Z,100938.92
2023-04-16T13:12:56.261Z,100925.44
2023-04-16T13:15:28.329Z,100930.38
2023-04-16T13:18:00.684Z,100925.08
2023-04-16T13:20:34.312Z,100915.05
2023-04-16T13:23:06.403Z,100922.42
2023-04-16T13:25:38.671Z,100918.36
2023-04-16T13:28:10.793Z,100919.81
2023-04-16T13:30:43.291Z,100917.12
2023-04-16T13:33:16.325Z,100906.77
2023-04-16T13:35:50.972Z,100904.58
2023-04-16T13:38:23.282Z,100907.50
2023-04-16T13:40:55.637Z,100905.89
2023-04-16T13:43:27.863Z,100909.33
2023-04-16T13:46:01.126Z,100904.95
2023-04-16T13:48:33.477Z,100903.02
2023-04-16T13:51:05.906Z,100896.69
2023-04-16T13:53:38.024Z,100894.27
2023-04-16T13:56:11.513Z,100896.29
2023-04-16T13:58:43.681Z,100895.80
2023-04-16T14:01:16.172Z,100891.94
2023-04-16T14:03:48.606Z,100887.94
2023-04-16T14:06:21.365Z,100896.77
2023-04-16T14:08:53.607Z,100889.59
2023-04-16T14:11:25.853Z,100886.12
2023-04-16T14:13:58.871Z,100895.58
2023-04-16T14:16:31.304Z,100894.36
2023-04-16T14:19:03.765Z,100900.24
2023-04-16T14:21:35.964Z,100901.17
2023-04-16T14:24:09.460Z,100903.58
2023-04-16T14:26:43.029Z,100901.03
2023-04-16T14:29:15.662Z,100903.59
2023-04-16T14:31:47.719Z,100898.37
2023-04-16T14:34:20.928Z,100901.75
2023-04-16T14:36:53.653Z,100894.47
2023-04-16T14:39:26.075Z,100890.56
2023-04-16T14:41:58.748Z,100895.82
2023-04-16T14:44:30.802Z,100890.86
2023-04-16T14:47:03.039Z,100885.59
2023-04-16T14:49:35.414Z,100883.34
2023-04-16T14:52:08.134Z,100880.08
2023-04-16T14:54:40.258Z,100882.22
2023-04-16T14:57:12.744Z,100882.32
2023-04-16T14:59:45.128Z,100895.30
2023-04-16T15:02:17.616Z,100888.41
2023-04-16T15:04:49.899Z,100877.04
2023-04-16T15:07:22.264Z,100885.50
2023-04-16T15:09:54.522Z,100887.36
2023-04-16T15:12:26.897Z,100896.44
2023-04-16T15:14:59.971Z,100895.09
2023-04-16T15:17:33.796Z,100890.47
2023-04-16T15:20:09.362Z,100896.33
2023-04-16T15:22:41.751Z,100890.09
2023-04-16T15:25:14.653Z,100894.09
2023-04-16T15:27:46.666Z,100887.80
2023-04-16T15:30:18.970Z,100891.20
2023-04-16T15:32:51.144Z,100933.25
2023-04-16T15:35:23.255Z,100892.25
2023-04-16T15:37:55.540Z,100900.88
2023-04-16T15:40:27.805Z,100900.88
2023-04-16T15:42:59.888Z,100899.85
2023-04-16T15:45:32.527Z,100898.42
2023-04-16T15:48:05.799Z,100898.42
2023-04-16T15:50:38.545Z,100895.53
2023-04-16T15:53:10.928Z,100897.88
2023-04-16T15:55:44.329Z,100900.23
2023-04-16T15:58:16.723Z,100897.14
2023-04-16T16:00:50.849Z,100899.33
2023-04-16T16:03:22.961Z,100900.75
2023-04-16T16:05:55.803Z,100897.65
2023-04-16T16:08:30.762Z,100899.03
2023-04-16T16:11:03.446Z,100895.95
2023-04-16T16:13:37.121Z,100898.97
2023-04-16T16:16:09.497Z,100895.82
2023-04-16T16:18:42.305Z,100896.98
2023-04-16T16:21:14.511Z,100903.34
2023-04-16T16:23:46.765Z,100893.86
2023-04-16T16:26:20.740Z,100899.31
2023-04-16T16:28:53.038Z,100896.82
2023-04-16T16:31:25.521Z,100898.52
2023-04-16T16:33:57.614Z,100901.30
2023-04-16T16:36:30.061Z,100895.33
2023-04-16T16:39:03.644Z,100899.91
2023-04-16T16:41:37.439Z,100895.72
2023-04-16T16:44:10.342Z,100903.78
2023-04-16T16:46:42.510Z,100905.72
2023-04-16T16:49:15.892Z,100896.38
2023-04-16T16:51:50.869Z,100908.08
2023-04-16T16:54:23.095Z,100899.53
2023-04-16T16:56:55.228Z,100900.67
2023-04-16T16:59:27.421Z,100905.19
2023-04-16T17:01:59.427Z,100911.53
2023-04-16T17:04:31.639Z,100905.70
2023-04-16T17:07:03.713Z,100907.17
2023-04-16T17:09:35.880Z,100904.13
2023-04-16T17:12:07.978Z,100902.95
2023-04-16T17:14:40.099Z,100902.41
2023-04-16T17:17:12.212Z,100908.03
2023-04-16T17:19:44.330Z,100907.52
2023-04-16T17:22:16.450Z,100909.50
2023-04-16T17:24:48.592Z,100902.59
2023-04-16T17:27:20.864Z,100905.42
2023-04-16T17:29:54.691Z,100909.92
2023-04-16T17:32:28.407Z,100903.72
2023-04-16T17:35:04.250Z,100899.31
2023-04-16T17:37:36.536Z,100906.35
2023-04-16T17:40:10.189Z,100905.42
2023-04-16T17:42:42.731Z,100901.86
2023-04-16T17:45:14.859Z,100906.29
2023-04-16T17:47:47.168Z,100901.79
2023-04-16T17:50:19.520Z,100907.06
2023-04-16T17:52:51.689Z,100906.22
2023-04-16T17:55:23.733Z,100899.95
2023-04-16T17:57:56.105Z,100897.27
2023-04-16T18:00:28.449Z,100899.95
2023-04-16T18:03:00.744Z,100894.63
2023-04-16T18:05:32.952Z,100893.05
2023-04-16T18:08:05.102Z,100893.05
2023-04-16T18:10:37.251Z,100890.19
2023-04-16T18:13:09.345Z,100884.08
2023-04-16T18:15:41.812Z,100888.55
2023-04-16T18:18:13.896Z,100892.63
2023-04-16T18:20:45.974Z,100885.66
2023-04-16T18:23:18.072Z,100888.23
2023-04-16T18:25:50.115Z,100892.41
2023-04-16T18:28:22.338Z,100887.07
2023-04-16T18:30:58.504Z,100886.08
2023-04-16T18:33:51.971Z,100877.27
2023-04-16T18:36:02.541Z,100883.17
2023-04-16T18:38:34.675Z,100878.77
2023-04-16T18:41:06.963Z,100882.47
2023-04-16T18:43:39.201Z,100878.97
2023-04-16T18:46:11.504Z,100878.03
2023-04-16T18:48:45.230Z,100873.70
2023-04-16T18:51:17.345Z,100876.39
2023-04-16T18:53:49.404Z,100882.67
2023-04-16T18:56:21.770Z,100875.11
2023-04-16T18:58:54.966Z,100878.59
2023-04-16T19:01:27.336Z,100870.74
2023-04-16T19:03:59.598Z,100869.84
2023-04-16T19:06:32.724Z,100875.18
2023-04-16T19:09:04.843Z,100871.67
2023-04-16T19:11:37.364Z,100863.90
2023-04-16T19:14:09.343Z,100863.06
2023-04-16T19:16:41.879Z,100864.83
2023-04-16T19:19:14.195Z,100865.70
2023-04-16T19:21:46.622Z,100862.19
2023-04-16T19:24:19.924Z,100864.83
2023-04-16T19:26:52.114Z,100860.36
2023-04-16T19:29:24.090Z,100864.83
2023-04-16T19:31:56.301Z,100866.34
2023-04-16T19:34:28.459Z,100865.41
2023-04-16T19:37:00.541Z,100867.20
2023-04-16T19:39:33.290Z,100863.70
2023-04-16T19:42:05.345Z,100863.70
2023-04-16T19:44:37.535Z,100869.10
2023-04-16T19:47:09.603Z,100868.33
2023-04-16T19:49:43.678Z,100871.03
2023-04-16T19:52:16.884Z,100874.79
2023-04-16T19:54:48.932Z,100875.85
2023-04-16T19:57:21.150Z,100867.08
2023-04-16T19:59:55.092Z,100883.05
2023-04-16T20:02:27.442Z,100881.47
2023-04-16T20:05:01.518Z,100882.59
2023-04-16T20:07:33.636Z,100869.60
2023-04-16T20:10:05.654Z,100883.05
2023-04-16T20:12:38.030Z,100879.48
2023-04-16T20:15:10.776Z,100880.30
2023-04-16T20:17:42.890Z,100881.78
2023-04-16T20:20:15.993Z,100876.27
2023-04-16T20:22:48.185Z,100875.20
2023-04-16T20:25:20.678Z,100876.14
2023-04-16T20:27:52.921Z,100874.27
2023-04-16T20:30:26.652Z,100871.58
2023-04-16T20:32:58.770Z,100868.88
2023-04-16T20:35:30.733Z,100878.55
2023-04-16T20:38:03.097Z,100875.91
2023-04-16T20:40:36.700Z,100870.64
2023-04-16T20:43:10.490Z,100871.58
2023-04-16T20:45:44.397Z,100872.45
2023-04-16T20:48:16.671Z,100870.80
2023-04-16T20:50:48.990Z,100873.44
2023-04-16T20:53:21.043Z,100875.14
2023-04-16T20:55:53.181Z,100867.17
2023-04-16T20:58:25.347Z,100863.80
2023-04-16T21:00:58.688Z,100859.46
2023-04-16T21:03:31.218Z,100855.06
2023-04-16T21:06:04.012Z,100855.06
2023-04-16T21:08:36.326Z,100856.95
2023-04-16T21:11:08.444Z,100859.75
2023-04-16T21:13:40.684Z,100856.30
2023-04-16T21:16:12.845Z,100860.70
2023-04-16T21:18:45.208Z,100864.20
2023-04-16T21:21:17.313Z,100859.00
2023-04-16T21:23:49.525Z,100854.73
2023-04-16T21:26:21.758Z,100854.95
2023-04-16T21:28:55.248Z,100852.56
2023-04-16T21:31:27.537Z,100858.94
2023-04-16T21:33:59.621Z,100856.53
2023-04-16T21:36:33.381Z,100866.26
2023-04-16T21:39:05.637Z,100861.20
2023-04-16T21:41:37.893Z,100871.80
2023-04-16T21:44:10.015Z,100867.64
2023-04-16T21:46:42.258Z,100867.77
2023-04-16T21:49:14.438Z,100868.75
2023-04-16T21:51:46.479Z,100872.43
2023-04-16T21:54:20.280Z,100872.48
2023-04-16T21:56:52.407Z,100870.91
2023-04-16T21:59:24.482Z,100874.52
2023-04-16T22:01:56.881Z,100872.06
2023-04-16T22:04:30.526Z,100874.85
2023-04-16T22:07:03.453Z,100875.74
2023-04-16T22:09:38.810Z,100873.32
2023-04-16T22:12:10.964Z,100868.23
2023-04-16T22:14:55.463Z,100871.02
2023-04-16T22:17:17.355Z,100876.39
2023-04-16T22:19:50.844Z,100866.91
2023-04-16T22:22:23.063Z,100874.86
2023-04-16T22:24:55.116Z,100878.44
2023-04-16T22:27:27.391Z,100881.18
2023-04-16T22:29:59.892Z,100879.42
2023-04-16T22:32:33.695Z,100877.77
2023-04-16T22:35:06.153Z,100878.66
2023-04-16T22:37:38.422Z,100888.41
2023-04-16T22:40:11.591Z,100878.81
2023-04-16T22:42:43.616Z,100875.37
2023-04-16T22:45:15.697Z,100877.08
2023-04-16T22:47:48.014Z,100883.26
2023-04-16T22:50:20.863Z,100871.81
2023-04-16T22:52:53.051Z,100871.90
2023-04-16T22:55:25.809Z,100885.05
2023-04-16T22:57:58.147Z,100879.84
2023-04-16T23:00:30.360Z,100879.91
2023-04-16T23:03:02.754Z,100874.64
2023-04-16T23:05:35.193Z,100875.62
2023-04-16T23:08:07.376Z,100881.66
2023-04-16T23:10:39.703Z,100876.34
2023-04-16T23:13:12.124Z,100874.59
2023-04-16T23:15:44.312Z,100867.53
2023-04-16T23:18:16.963Z,100875.48
2023-04-16T23:20:53.708Z,100869.38
2023-04-16T23:23:26.189Z,100873.77
2023-04-16T23:25:58.273Z,100875.62
2023-04-16T23:28:30.653Z,100872.23
2023-04-16T23:31:04.211Z,100873.16
2023-04-16T23:33:36.710Z,100868.02
2023-04-16T23:36:09.332Z,100869.86
2023-04-16T23:38:41.553Z,100865.58
2023-04-16T23:41:13.755Z,100863.06
2023-04-16T23:43:45.898Z,100864.09
2023-04-16T23:46:18.091Z,100859.82
2023-04-16T23:48:50.154Z,100860.80
2023-04-16T23:51:22.346Z,100859.93
2023-04-16T23:53:54.346Z,100852.97
2023-04-16T23:56:26.446Z,100861.72
2023-04-16T23:58:58.706Z,100862.61
